Time;durP1;ratioP1;P1;durP2;ratioP2;P2;SDS_P1;SDS_P2;PMS_P1;PMS_P2;Temp;Humidity;BMP_temperature;BMP_pressure;BME280_temperature;BME280_humidity;BME280_pressure;Samples;Min_cycle;Max_cycle;Signal;HPM_P1;HPM_P2
2021/06/30 00:00:31;;;;;;;1.60;1.10;;;20.00;99.90;;;;;;4414038;32;20065;-76
2021/06/30 00:02:56;;;;;;;0.65;0.65;;;20.10;99.90;;;;;;4413933;32;20131;-76
2021/06/30 00:05:22;;;;;;;0.95;0.57;;;20.20;99.90;;;;;;4414188;32;20075;-75
2021/06/30 00:07:47;;;;;;;1.15;0.70;;;20.20;99.90;;;;;;4413501;32;20070;-76
2021/06/30 00:10:14;;;;;;;0.37;0.37;;;20.30;99.90;;;;;;4413650;32;20065;-76
2021/06/30 00:12:40;;;;;;;1.62;0.45;;;20.40;99.90;;;;;;4414909;32;20116;-76
2021/06/30 00:15:09;;;;;;;0.60;0.60;;;20.50;99.90;;;;;;4414363;32;20077;-76
2021/06/30 00:17:35;;;;;;;2.87;1.08;;;20.30;99.90;;;;;;4413914;32;20062;-76
2021/06/30 00:20:00;;;;;;;1.35;0.93;;;20.30;99.90;;;;;;4413606;32;20153;-76
2021/06/30 00:22:26;;;;;;;0.70;0.70;;;20.30;99.90;;;;;;4413720;32;20070;-76
2021/06/30 00:24:51;;;;;;;0.55;0.55;;;20.20;99.90;;;;;;4413913;32;20414;-76
2021/06/30 00:27:17;;;;;;;3.40;0.80;;;20.20;99.90;;;;;;4415546;32;20065;-76
2021/06/30 00:29:42;;;;;;;1.92;0.80;;;20.10;99.90;;;;;;4415921;32;20140;-76
2021/06/30 00:32:08;;;;;;;1.77;0.88;;;20.20;99.90;;;;;;4421973;32;20081;-76
2021/06/30 00:34:34;;;;;;;0.50;0.50;;;20.20;99.90;;;;;;4430935;32;20074;-76
2021/06/30 00:36:59;;;;;;;0.95;0.82;;;20.20;99.90;;;;;;4431537;32;20078;-76
2021/06/30 00:39:25;;;;;;;2.62;0.68;;;20.30;99.90;;;;;;4431712;32;20061;-76
2021/06/30 00:41:51;;;;;;;0.80;0.62;;;20.30;99.90;;;;;;4431041;32;20511;-76
2021/06/30 00:44:16;;;;;;;20.27;1.27;;;20.40;99.90;;;;;;4431953;32;20081;-76
2021/06/30 00:46:42;;;;;;;0.68;0.62;;;20.40;99.90;;;;;;4431983;32;20066;-75
2021/06/30 00:49:09;;;;;;;0.47;0.47;;;20.30;99.90;;;;;;4432408;32;20062;-75
2021/06/30 00:51:34;;;;;;;2.80;0.85;;;20.30;99.90;;;;;;4431437;32;20060;-75
2021/06/30 00:54:00;;;;;;;0.73;0.65;;;20.30;99.90;;;;;;4431814;32;20070;-76
2021/06/30 00:56:28;;;;;;;0.75;0.75;;;20.30;99.90;;;;;;4430485;32;20065;-76
2021/06/30 00:58:57;;;;;;;2.05;0.82;;;20.20;99.90;;;;;;4430880;32;20069;-76
2021/06/30 01:01:24;;;;;;;3.30;1.15;;;20.20;99.90;;;;;;4431884;32;20407;-76
2021/06/30 01:03:51;;;;;;;0.73;0.73;;;20.30;99.90;;;;;;4431637;32;20557;-76
2021/06/30 01:06:18;;;;;;;1.52;0.70;;;20.30;99.90;;;;;;4431226;32;20078;-76
2021/06/30 01:08:44;;;;;;;1.55;0.95;;;20.30;99.90;;;;;;4431070;32;20116;-76
2021/06/30 01:11:12;;;;;;;1.02;0.80;;;20.30;99.90;;;;;;4430615;32;20416;-76
2021/06/30 01:13:39;;;;;;;0.75;0.75;;;20.30;99.90;;;;;;4431452;32;20562;-76
2021/06/30 01:16:05;;;;;;;1.00;0.88;;;20.30;99.90;;;;;;4430919;32;20082;-76
2021/06/30 01:18:32;;;;;;;0.50;0.50;;;20.30;99.90;;;;;;4432711;32;20069;-76
2021/06/30 01:20:59;;;;;;;0.62;0.60;;;20.30;99.90;;;;;;4431243;32;20077;-75
2021/06/30 01:23:26;;;;;;;1.30;0.90;;;20.40;99.90;;;;;;4431501;32;20450;-76
2021/06/30 01:25:53;;;;;;;1.08;0.73;;;20.40;99.90;;;;;;4431539;32;20061;-75
2021/06/30 01:28:19;;;;;;;3.33;1.92;;;20.40;99.90;;;;;;4431609;32;20065;-75
2021/06/30 01:30:50;;;;;;;1.08;0.62;;;20.30;99.90;;;;;;4431575;32;20066;-75
2021/06/30 01:33:15;;;;;;;;;;;20.30;99.90;;;;;;4419741;32;20438;-75
2021/06/30 01:35:41;;;;;;;2.40;1.10;;;20.30;99.90;;;;;;4415529;32;19951;-76
2021/06/30 01:38:07;;;;;;;1.60;1.20;;;20.30;99.90;;;;;;4415604;32;20065;-76
2021/06/30 01:40:33;;;;;;;4.15;1.23;;;20.30;99.90;;;;;;4414865;32;20053;-76
2021/06/30 01:42:59;;;;;;;4.40;1.40;;;20.20;99.90;;;;;;4416108;32;20061;-75
2021/06/30 01:45:26;;;;;;;1.00;0.90;;;20.10;99.90;;;;;;4416517;32;20135;-75
2021/06/30 01:47:52;;;;;;;4.45;1.20;;;20.10;99.90;;;;;;4416204;32;20058;-75
2021/06/30 01:50:18;;;;;;;5.90;1.12;;;20.20;99.90;;;;;;4416119;32;20125;-75
2021/06/30 01:52:45;;;;;;;0.90;0.65;;;20.30;99.90;;;;;;4415080;32;20069;-75
2021/06/30 01:55:12;;;;;;;1.17;1.05;;;20.40;99.90;;;;;;4415854;32;20447;-75
2021/06/30 01:57:40;;;;;;;1.85;1.20;;;20.40;99.90;;;;;;4415997;32;20061;-75
2021/06/30 02:00:06;;;;;;;0.75;0.68;;;20.40;99.90;;;;;;4415082;32;20053;-75
2021/06/30 02:02:32;;;;;;;0.70;0.70;;;20.30;99.90;;;;;;4416422;32;20440;-75
2021/06/30 02:05:05;;;;;;;1.90;1.00;;;20.20;99.90;;;;;;4415868;32;20117;-75
2021/06/30 02:07:31;;;;;;;1.23;0.93;;;20.20;99.90;;;;;;4416205;32;20125;-75
2021/06/30 02:09:57;;;;;;;0.77;0.70;;;20.20;99.90;;;;;;4414588;32;20074;-75
2021/06/30 02:12:23;;;;;;;3.47;1.02;;;20.30;99.90;;;;;;4415260;32;20082;-75
2021/06/30 02:14:48;;;;;;;6.60;1.90;;;20.30;99.90;;;;;;4415811;32;20070;-75
2021/06/30 02:17:18;;;;;;;1.45;0.93;;;20.20;99.90;;;;;;4415933;32;20073;-75
2021/06/30 02:19:43;;;;;;;4.68;1.75;;;20.20;99.90;;;;;;4415375;32;20291;-76
2021/06/30 02:22:09;;;;;;;2.12;1.25;;;20.10;99.90;;;;;;4416504;32;20066;-75
2021/06/30 02:24:34;;;;;;;0.82;0.82;;;20.10;99.90;;;;;;4415365;32;20112;-76
2021/06/30 02:27:00;;;;;;;1.25;1.00;;;20.10;99.90;;;;;;4414311;32;20112;-75
2021/06/30 02:29:25;;;;;;;0.93;0.70;;;20.00;99.90;;;;;;4416090;32;20400;-75
2021/06/30 02:31:51;;;;;;;0.98;0.80;;;20.00;99.90;;;;;;4418735;32;20125;-75
2021/06/30 02:34:16;;;;;;;2.08;1.00;;;20.00;99.90;;;;;;4430309;32;20467;-76
2021/06/30 02:36:42;;;;;;;1.25;0.85;;;20.00;99.90;;;;;;4430393;32;20065;-75
2021/06/30 02:39:07;;;;;;;1.27;1.15;;;19.90;99.90;;;;;;4430734;32;20065;-75
2021/06/30 02:41:33;;;;;;;1.90;0.70;;;19.90;99.90;;;;;;4429677;32;20061;-75
2021/06/30 02:43:58;;;;;;;2.42;1.02;;;20.10;99.90;;;;;;4430796;32;20531;-75
2021/06/30 02:46:24;;;;;;;0.70;0.70;;;20.10;99.90;;;;;;4431411;32;20085;-75
2021/06/30 02:48:49;;;;;;;3.78;1.23;;;20.10;99.90;;;;;;4430460;32;20061;-75
2021/06/30 02:51:15;;;;;;;2.17;1.17;;;20.20;99.90;;;;;;4430460;32;20065;-75
2021/06/30 02:53:41;;;;;;;1.77;0.90;;;20.10;99.90;;;;;;4430780;32;20069;-75
2021/06/30 02:56:06;;;;;;;1.77;1.02;;;20.10;99.90;;;;;;4429554;32;20575;-75
2021/06/30 02:58:32;;;;;;;0.90;0.90;;;20.00;99.90;;;;;;4429974;32;20057;-75
2021/06/30 03:00:57;;;;;;;0.98;0.80;;;19.90;99.90;;;;;;4430306;32;20065;-75
2021/06/30 03:03:23;;;;;;;2.25;1.25;;;19.90;99.90;;;;;;4430727;32;20119;-75
2021/06/30 03:05:48;;;;;;;1.25;0.95;;;19.90;99.90;;;;;;4430403;32;20069;-75
2021/06/30 03:08:14;;;;;;;0.60;0.60;;;19.90;99.90;;;;;;4429896;32;20061;-76
2021/06/30 03:10:39;;;;;;;2.58;0.80;;;19.90;99.90;;;;;;4429745;32;20065;-76
2021/06/30 03:13:05;;;;;;;1.20;1.02;;;19.90;99.90;;;;;;4429851;32;20062;-76
2021/06/30 03:15:30;;;;;;;1.55;0.70;;;19.90;99.90;;;;;;4431166;32;20073;-76
2021/06/30 03:17:57;;;;;;;1.00;0.98;;;19.90;99.90;;;;;;4430758;32;20462;-76
2021/06/30 03:20:22;;;;;;;0.98;0.88;;;19.80;99.90;;;;;;4430291;32;20073;-76
2021/06/30 03:22:48;;;;;;;0.75;0.50;;;19.80;99.90;;;;;;4431243;32;20082;-76
2021/06/30 03:25:14;;;;;;;2.17;0.93;;;19.80;99.90;;;;;;4429095;32;20065;-76
2021/06/30 03:27:42;;;;;;;2.47;1.17;;;19.70;99.90;;;;;;4430318;32;20571;-76
2021/06/30 03:30:09;;;;;;;2.20;1.00;;;19.80;99.90;;;;;;4429597;32;20085;-76
2021/06/30 03:32:35;;;;;;;0.60;0.60;;;19.80;99.90;;;;;;4422743;32;20066;-76
2021/06/30 03:35:02;;;;;;;0.65;0.52;;;19.80;99.90;;;;;;4414524;32;20538;-75
2021/06/30 03:37:27;;;;;;;0.52;0.52;;;19.90;99.90;;;;;;4415246;32;20128;-75
2021/06/30 03:39:53;;;;;;;0.50;0.50;;;19.90;99.90;;;;;;4413571;32;20507;-76
2021/06/30 03:42:18;;;;;;;1.25;0.60;;;19.80;99.90;;;;;;4415832;32;20086;-75
2021/06/30 03:44:44;;;;;;;1.65;0.70;;;19.80;99.90;;;;;;4414007;32;20065;-75
2021/06/30 03:47:09;;;;;;;0.50;0.50;;;19.70;99.90;;;;;;4414648;32;20531;-76
2021/06/30 03:49:35;;;;;;;0.45;0.45;;;19.80;99.90;;;;;;4414618;32;20065;-75
2021/06/30 03:52:01;;;;;;;4.30;0.95;;;19.80;99.90;;;;;;4413849;32;20062;-75
2021/06/30 03:54:27;;;;;;;2.08;0.85;;;19.80;99.90;;;;;;4414371;32;20083;-75
2021/06/30 03:56:52;;;;;;;2.72;1.00;;;19.70;99.90;;;;;;4414833;32;20086;-75
2021/06/30 03:59:19;;;;;;;0.77;0.73;;;19.70;99.90;;;;;;4413918;32;20057;-75
2021/06/30 04:01:45;;;;;;;0.68;0.60;;;19.60;99.90;;;;;;4413598;32;20078;-75
2021/06/30 04:04:12;;;;;;;1.05;0.80;;;19.70;99.90;;;;;;4414957;32;20093;-75
2021/06/30 04:06:39;;;;;;;0.68;0.68;;;19.70;99.90;;;;;;4413406;32;20069;-75
2021/06/30 04:09:05;;;;;;;0.65;0.60;;;19.60;99.90;;;;;;4415249;32;20078;-75
2021/06/30 04:11:31;;;;;;;1.37;0.93;;;19.60;99.90;;;;;;4413771;32;20062;-75
2021/06/30 04:13:56;;;;;;;2.08;0.85;;;19.60;99.90;;;;;;4414504;32;20062;-75
2021/06/30 04:16:22;;;;;;;1.10;0.68;;;19.60;99.90;;;;;;4414357;32;20061;-75
2021/06/30 04:18:48;;;;;;;4.12;1.08;;;19.70;99.90;;;;;;4414422;32;20392;-75
2021/06/30 04:21:13;;;;;;;0.68;0.68;;;19.60;99.90;;;;;;4413214;32;20527;-75
2021/06/30 04:23:39;;;;;;;1.87;0.75;;;19.50;99.90;;;;;;4414526;32;20082;-75
2021/06/30 04:26:04;;;;;;;2.33;1.10;;;19.60;99.90;;;;;;4414299;32;20507;-75
2021/06/30 04:28:30;;;;;;;0.40;0.40;;;19.50;99.90;;;;;;4414121;32;20077;-75
2021/06/30 04:30:56;;;;;;;1.05;0.77;;;19.60;99.90;;;;;;4415542;32;20069;-77
2021/06/30 04:33:22;;;;;;;0.60;0.60;;;19.60;99.90;;;;;;4426808;32;20062;-76
2021/06/30 04:35:47;;;;;;;4.05;1.12;;;19.70;99.90;;;;;;4429461;32;20090;-75
2021/06/30 04:38:13;;;;;;;1.17;0.73;;;19.60;99.90;;;;;;4428580;32;20061;-76
2021/06/30 04:40:39;;;;;;;0.62;0.60;;;19.40;99.90;;;;;;4428295;32;20511;-76
2021/06/30 04:43:04;;;;;;;2.17;0.75;;;19.40;99.90;;;;;;4429504;32;20483;-75
2021/06/30 04:45:30;;;;;;;2.78;0.80;;;19.40;99.90;;;;;;4428780;32;20064;-75
2021/06/30 04:47:55;;;;;;;7.28;0.95;;;19.40;99.90;;;;;;4429370;32;20062;-76
2021/06/30 04:50:21;;;;;;;1.75;0.80;;;19.50;99.90;;;;;;4429310;32;20069;-76
2021/06/30 04:52:47;;;;;;;0.88;0.80;;;19.50;99.90;;;;;;4423774;32;20488;-76
2021/06/30 04:55:12;;;;;;;0.73;0.68;;;19.50;99.90;;;;;;4413160;32;20166;-76
2021/06/30 04:57:38;;;;;;;1.42;0.82;;;19.50;99.90;;;;;;4413513;32;20074;-76
2021/06/30 05:00:06;;;;;;;2.90;0.93;;;19.50;99.90;;;;;;4425613;32;20065;-76
2021/06/30 05:02:32;;;;;;;1.00;0.90;;;19.50;99.90;;;;;;4414714;32;20062;-76
2021/06/30 05:04:57;;;;;;;1.75;0.70;;;19.50;99.90;;;;;;4421927;32;20404;-76
2021/06/30 05:07:23;;;;;;;0.70;0.70;;;19.50;99.90;;;;;;4428325;32;20137;-76
2021/06/30 05:09:49;;;;;;;0.70;0.70;;;19.50;99.90;;;;;;4417564;32;20058;-76
2021/06/30 05:12:14;;;;;;;2.37;0.80;;;19.50;99.90;;;;;;4423441;32;20390;-76
2021/06/30 05:14:40;;;;;;;6.22;1.30;;;19.50;99.90;;;;;;4430649;32;20085;-77
2021/06/30 05:17:05;;;;;;;0.80;0.50;;;19.50;99.90;;;;;;4431598;32;20073;-76
2021/06/30 05:19:31;;;;;;;1.02;0.88;;;19.50;99.90;;;;;;4431724;32;20099;-76
2021/06/30 05:21:57;;;;;;;1.37;1.15;;;19.50;99.90;;;;;;4430906;32;20089;-76
2021/06/30 05:24:23;;;;;;;0.62;0.57;;;19.50;99.90;;;;;;4431496;32;20061;-76
2021/06/30 05:26:50;;;;;;;3.22;0.90;;;19.60;99.90;;;;;;4430871;32;20078;-76
2021/06/30 05:29:15;;;;;;;0.98;0.80;;;19.70;99.90;;;;;;4430485;32;20078;-76
2021/06/30 05:31:41;;;;;;;1.00;0.77;;;19.70;99.90;;;;;;4415919;32;20089;-76
2021/06/30 05:34:06;;;;;;;0.50;0.50;;;19.60;99.90;;;;;;4415659;32;20073;-75
2021/06/30 05:36:32;;;;;;;0.30;0.30;;;19.50;99.90;;;;;;4415572;32;20483;-75
2021/06/30 05:38:57;;;;;;;0.50;0.50;;;19.40;99.90;;;;;;4416214;32;20435;-75
2021/06/30 05:41:23;;;;;;;0.68;0.65;;;19.40;99.90;;;;;;4415521;32;20535;-75
2021/06/30 05:43:48;;;;;;;0.43;0.43;;;19.40;99.90;;;;;;4417239;32;20065;-75
2021/06/30 05:46:17;;;;;;;0.50;0.50;;;19.50;99.90;;;;;;4416651;32;20061;-76
2021/06/30 05:48:42;;;;;;;0.57;0.57;;;19.50;99.90;;;;;;4430911;32;20577;-76
2021/06/30 05:51:08;;;;;;;0.50;0.50;;;19.50;99.90;;;;;;4431588;32;20065;-76
2021/06/30 05:53:33;;;;;;;1.67;0.75;;;19.50;99.90;;;;;;4430626;32;20444;-76
2021/06/30 05:55:59;;;;;;;0.65;0.62;;;19.50;99.90;;;;;;4416615;32;20074;-76
2021/06/30 05:58:24;;;;;;;0.82;0.70;;;19.50;99.90;;;;;;4425231;32;20081;-76
2021/06/30 06:00:50;;;;;;;0.43;0.43;;;19.50;99.90;;;;;;4430830;32;20062;-76
2021/06/30 06:03:16;;;;;;;0.90;0.70;;;19.50;99.90;;;;;;4431467;32;20135;-76
2021/06/30 06:05:41;;;;;;;3.20;0.82;;;19.60;99.90;;;;;;4430747;32;20412;-76
